Disclaimer

Please do not use the information listed here in-flight or in-navigation, as they are not provided to us by the airports but are provided by volunteers, so they might be outdated.

Search


Regions


Airport information page

No radio frequency information is available.

Airport informations:
Latitude: 18° 48' 28.49" N
Longitude: 100° 47' 00.31" E
Elevation: 685 feet - 209 meters
Operating hours: From sunrise to sunset (SR-SS)
Operating agency: Civil government, landing fees and diplomatic clearance may be required
Timezone: UTC+7
Fuel: N/A

Runway information:
02/20 - 6562 x 148 feet< - >2000 x 45 meters

Recent METARs:
VTCN 182300Z VRB02KT 6000 FEW005 20/20 Q1014 BECMG FM2340 2000 BR
VTCN 182300Z VRB02KT 6000 FEW005 20/20 Q1014 BECMG FM2340 2000 BR

Airport on the map: